sensor_id;sensor_type;location;lat;lon;timestamp;pressure;altitude;pressure_sealevel;temperature;humidity
58937;BME280;44718;52.346;4.970;2023-03-01T00:01:48;61811.78;;;-146.50;100.00
58937;BME280;44718;52.346;4.970;2023-03-01T00:04:13;61881.94;;;-146.50;100.00
58937;BME280;44718;52.346;4.970;2023-03-01T00:06:39;61844.78;;;-146.50;100.00
58937;BME280;44718;52.346;4.970;2023-03-01T00:09:05;61824.16;;;-146.50;100.00
58937;BME280;44718;52.346;4.970;2023-03-01T00:11:31;61739.56;;;-146.50;100.00
58937;BME280;44718;52.346;4.970;2023-03-01T00:13:58;61679.72;;;-146.50;100.00
58937;BME280;44718;52.346;4.970;2023-03-01T00:16:30;61619.88;;;-146.50;100.00
58937;BME280;44718;52.346;4.970;2023-03-01T00:18:57;61520.84;;;-146.50;100.00
58937;BME280;44718;52.346;4.970;2023-03-01T00:21:23;61491.97;;;-146.50;100.00
58937;BME280;44718;52.346;4.970;2023-03-01T00:23:49;61465.13;;;-146.50;100.00
58937;BME280;44718;52.346;4.970;2023-03-01T00:26:15;61415.63;;;-146.50;100.00
58937;BME280;44718;52.346;4.970;2023-03-01T00:28:42;61436.25;;;-146.50;100.00
58937;BME280;44718;52.346;4.970;2023-03-01T00:31:10;61438.31;;;-146.50;100.00
58937;BME280;44718;52.346;4.970;2023-03-01T00:33:36;61448.63;;;-146.50;100.00
58937;BME280;44718;52.346;4.970;2023-03-01T00:36:01;61440.38;;;-146.50;100.00
58937;BME280;44718;52.346;4.970;2023-03-01T00:38:26;61432.13;;;-146.50;100.00
58937;BME280;44718;52.346;4.970;2023-03-01T00:40:52;61399.13;;;-146.50;100.00
58937;BME280;44718;52.346;4.970;2023-03-01T00:43:17;61467.19;;;-146.50;100.00
58937;BME280;44718;52.346;4.970;2023-03-01T00:45:43;61411.50;;;-146.50;100.00
58937;BME280;44718;52.346;4.970;2023-03-01T00:48:08;61425.94;;;-146.50;100.00
58937;BME280;44718;52.346;4.970;2023-03-01T00:50:34;61397.06;;;-146.50;100.00
58937;BME280;44718;52.346;4.970;2023-03-01T00:52:59;61374.34;;;-146.50;100.00
58937;BME280;44718;52.346;4.970;2023-03-01T00:55:24;61405.31;;;-146.50;100.00
58937;BME280;44718;52.346;4.970;2023-03-01T00:57:50;61390.88;;;-146.50;100.00
58937;BME280;44718;52.346;4.970;2023-03-01T01:00:16;61374.34;;;-146.50;100.00
58937;BME280;44718;52.346;4.970;2023-03-01T01:02:41;61357.84;;;-146.50;100.00
58937;BME280;44718;52.346;4.970;2023-03-01T01:05:07;61374.34;;;-146.50;100.00
58937;BME280;44718;52.346;4.970;2023-03-01T01:07:32;61415.63;;;-146.50;100.00
58937;BME280;44718;52.346;4.970;2023-03-01T01:09:58;61378.47;;;-146.50;100.00
58937;BME280;44718;52.346;4.970;2023-03-01T01:12:23;61380.53;;;-146.50;100.00
58937;BME280;44718;52.346;4.970;2023-03-01T01:14:48;61355.78;;;-146.50;100.00
58937;BME280;44718;52.346;4.970;2023-03-01T01:17:13;61388.78;;;-146.50;100.00
58937;BME280;44718;52.346;4.970;2023-03-01T01:19:39;61392.94;;;-146.50;100.00
58937;BME280;44718;52.346;4.970;2023-03-01T01:22:04;61403.25;;;-146.50;100.00
58937;BME280;44718;52.346;4.970;2023-03-01T01:24:30;61374.34;;;-146.50;100.00
58937;BME280;44718;52.346;4.970;2023-03-01T01:26:56;61405.31;;;-146.50;100.00
58937;BME280;44718;52.346;4.970;2023-03-01T01:29:21;61386.72;;;-146.50;100.00
58937;BME280;44718;52.346;4.970;2023-03-01T01:31:47;61372.28;;;-146.50;100.00
58937;BME280;44718;52.346;4.970;2023-03-01T01:34:15;61378.47;;;-146.50;100.00
58937;BME280;44718;52.346;4.970;2023-03-01T01:36:41;61409.44;;;-146.50;100.00
58937;BME280;44718;52.346;4.970;2023-03-01T01:39:07;61401.19;;;-146.50;100.00
58937;BME280;44718;52.346;4.970;2023-03-01T01:41:32;61374.34;;;-146.50;100.00
58937;BME280;44718;52.346;4.970;2023-03-01T01:49:22;61425.94;;;-146.50;100.00
58937;BME280;44718;52.346;4.970;2023-03-01T01:51:51;61407.38;;;-146.50;100.00
58937;BME280;44718;52.346;4.970;2023-03-01T01:54:30;61390.88;;;-146.50;100.00
58937;BME280;44718;52.346;4.970;2023-03-01T01:57:01;61411.50;;;-146.50;100.00
58937;BME280;44718;52.346;4.970;2023-03-01T01:59:30;61401.19;;;-146.50;100.00
58937;BME280;44718;52.346;4.970;2023-03-01T02:01:59;61446.56;;;-146.50;100.00
58937;BME280;44718;52.346;4.970;2023-03-01T02:04:28;61432.13;;;-146.50;100.00
58937;BME280;44718;52.346;4.970;2023-03-01T02:07:02;61399.13;;;-146.50;100.00
58937;BME280;44718;52.346;4.970;2023-03-01T02:09:30;61442.44;;;-146.50;100.00
58937;BME280;44718;52.346;4.970;2023-03-01T02:11:57;61415.63;;;-146.50;100.00
58937;BME280;44718;52.346;4.970;2023-03-01T02:14:22;61432.13;;;-146.50;100.00
58937;BME280;44718;52.346;4.970;2023-03-01T02:16:48;61436.25;;;-146.50;100.00
58937;BME280;44718;52.346;4.970;2023-03-01T02:19:34;61438.31;;;-146.50;100.00
58937;BME280;44718;52.346;4.970;2023-03-01T02:22:13;61421.81;;;-146.50;100.00
58937;BME280;44718;52.346;4.970;2023-03-01T02:24:52;61388.78;;;-146.50;100.00
58937;BME280;44718;52.346;4.970;2023-03-01T02:27:23;61419.75;;;-146.50;100.00
58937;BME280;44718;52.346;4.970;2023-03-01T02:29:52;61364.03;;;-146.50;100.00
58937;BME280;44718;52.346;4.970;2023-03-01T02:32:17;61419.75;;;-146.50;100.00
58937;BME280;44718;52.346;4.970;2023-03-01T02:34:51;61448.63;;;-146.50;100.00
58937;BME280;44718;52.346;4.970;2023-03-01T02:37:19;61448.63;;;-146.50;100.00
58937;BME280;44718;52.346;4.970;2023-03-01T02:39:55;61390.88;;;-146.50;100.00
58937;BME280;44718;52.346;4.970;2023-03-01T02:42:31;61397.06;;;-146.50;100.00
58937;BME280;44718;52.346;4.970;2023-03-01T02:44:58;61395.00;;;-146.50;100.00
58937;BME280;44718;52.346;4.970;2023-03-01T02:47:23;61401.19;;;-146.50;100.00
58937;BME280;44718;52.346;4.970;2023-03-01T02:49:49;61415.63;;;-146.50;100.00
58937;BME280;44718;52.346;4.970;2023-03-01T02:55:10;61425.94;;;-146.50;100.00
58937;BME280;44718;52.346;4.970;2023-03-01T02:57:38;61392.94;;;-146.50;100.00
58937;BME280;44718;52.346;4.970;2023-03-01T03:00:11;61425.94;;;-146.50;100.00
58937;BME280;44718;52.346;4.970;2023-03-01T03:02:51;61421.81;;;-146.50;100.00
58937;BME280;44718;52.346;4.970;2023-03-01T03:05:21;61411.50;;;-146.50;100.00
58937;BME280;44718;52.346;4.970;2023-03-01T03:07:50;61411.50;;;-146.50;100.00
58937;BME280;44718;52.346;4.970;2023-03-01T03:10:24;61388.78;;;-146.50;100.00
58937;BME280;44718;52.346;4.970;2023-03-01T03:12:54;61417.69;;;-146.50;100.00
58937;BME280;44718;52.346;4.970;2023-03-01T03:15:20;61376.41;;;-146.50;100.00
58937;BME280;44718;52.346;4.970;2023-03-01T03:17:45;61399.13;;;-146.50;100.00
58937;BME280;44718;52.346;4.970;2023-03-01T03:20:14;61421.81;;;-146.50;100.00
58937;BME280;44718;52.346;4.970;2023-03-01T03:22:45;61382.59;;;-146.50;100.00
58937;BME280;44718;52.346;4.970;2023-03-01T03:25:11;61384.66;;;-146.50;100.00
58937;BME280;44718;52.346;4.970;2023-03-01T03:27:41;61386.72;;;-146.50;100.00
58937;BME280;44718;52.346;4.970;2023-03-01T03:30:11;61382.59;;;-146.50;100.00
58937;BME280;44718;52.346;4.970;2023-03-01T03:32:41;61434.19;;;-146.50;100.00
58937;BME280;44718;52.346;4.970;2023-03-01T03:35:10;61415.63;;;-146.50;100.00
58937;BME280;44718;52.346;4.970;2023-03-01T03:37:36;61395.00;;;-146.50;100.00
58937;BME280;44718;52.346;4.970;2023-03-01T03:40:20;61374.34;;;-146.50;100.00
58937;BME280;44718;52.346;4.970;2023-03-01T03:42:45;61380.53;;;-146.50;100.00
58937;BME280;44718;52.346;4.970;2023-03-01T03:45:11;61415.63;;;-146.50;100.00
58937;BME280;44718;52.346;4.970;2023-03-01T03:47:36;61390.88;;;-146.50;100.00
58937;BME280;44718;52.346;4.970;2023-03-01T03:50:01;61401.19;;;-146.50;100.00
58937;BME280;44718;52.346;4.970;2023-03-01T03:52:27;61372.28;;;-146.50;100.00
58937;BME280;44718;52.346;4.970;2023-03-01T03:54:52;61359.91;;;-146.50;100.00
58937;BME280;44718;52.346;4.970;2023-03-01T03:57:17;61403.25;;;-146.50;100.00
58937;BME280;44718;52.346;4.970;2023-03-01T03:59:43;61388.78;;;-146.50;100.00
58937;BME280;44718;52.346;4.970;2023-03-01T04:02:14;61399.13;;;-146.50;100.00
58937;BME280;44718;52.346;4.970;2023-03-01T04:04:49;61401.19;;;-146.50;100.00
58937;BME280;44718;52.346;4.970;2023-03-01T04:07:21;61411.50;;;-146.50;100.00
58937;BME280;44718;52.346;4.970;2023-03-01T04:09:46;61374.34;;;-146.50;100.00
58937;BME280;44718;52.346;4.970;2023-03-01T04:12:11;61380.53;;;-146.50;100.00
58937;BME280;44718;52.346;4.970;2023-03-01T04:14:37;61392.94;;;-146.50;100.00
58937;BME280;44718;52.346;4.970;2023-03-01T04:17:02;61372.28;;;-146.50;100.00
58937;BME280;44718;52.346;4.970;2023-03-01T04:19:31;61415.63;;;-146.50;100.00
58937;BME280;44718;52.346;4.970;2023-03-01T04:22:02;61384.66;;;-146.50;100.00
58937;BME280;44718;52.346;4.970;2023-03-01T04:24:33;61390.88;;;-146.50;100.00
58937;BME280;44718;52.346;4.970;2023-03-01T04:26:58;61380.53;;;-146.50;100.00
58937;BME280;44718;52.346;4.970;2023-03-01T04:29:23;61399.13;;;-146.50;100.00
58937;BME280;44718;52.346;4.970;2023-03-01T04:31:49;61403.25;;;-146.50;100.00
58937;BME280;44718;52.346;4.970;2023-03-01T04:34:14;61415.63;;;-146.50;100.00
58937;BME280;44718;52.346;4.970;2023-03-01T04:36:39;61399.13;;;-146.50;100.00
58937;BME280;44718;52.346;4.970;2023-03-01T04:39:05;61382.59;;;-146.50;100.00
58937;BME280;44718;52.346;4.970;2023-03-01T04:41:38;61407.38;;;-146.50;100.00
58937;BME280;44718;52.346;4.970;2023-03-01T04:44:08;61403.25;;;-146.50;100.00
58937;BME280;44718;52.346;4.970;2023-03-01T04:46:34;61378.47;;;-146.50;100.00
58937;BME280;44718;52.346;4.970;2023-03-01T04:48:59;61411.50;;;-146.50;100.00
58937;BME280;44718;52.346;4.970;2023-03-01T04:51:25;61448.63;;;-146.50;100.00
58937;BME280;44718;52.346;4.970;2023-03-01T04:53:50;61392.94;;;-146.50;100.00
58937;BME280;44718;52.346;4.970;2023-03-01T04:56:16;61401.19;;;-146.50;100.00
58937;BME280;44718;52.346;4.970;2023-03-01T04:58:43;61364.03;;;-146.50;100.00
58937;BME280;44718;52.346;4.970;2023-03-01T05:01:09;61419.75;;;-146.50;100.00
58937;BME280;44718;52.346;4.970;2023-03-01T05:03:43;61417.69;;;-146.50;100.00
58937;BME280;44718;52.346;4.970;2023-03-01T05:06:10;61413.56;;;-146.50;100.00
58937;BME280;44718;52.346;4.970;2023-03-01T05:08:37;61442.44;;;-146.50;100.00
58937;BME280;44718;52.346;4.970;2023-03-01T05:11:03;61417.69;;;-146.50;100.00
58937;BME280;44718;52.346;4.970;2023-03-01T05:13:28;61399.13;;;-146.50;100.00
58937;BME280;44718;52.346;4.970;2023-03-01T05:15:56;61366.09;;;-146.50;100.00
58937;BME280;44718;52.346;4.970;2023-03-01T05:18:23;61434.19;;;-146.50;100.00
58937;BME280;44718;52.346;4.970;2023-03-01T05:20:54;61403.25;;;-146.50;100.00
58937;BME280;44718;52.346;4.970;2023-03-01T05:23:25;61347.53;;;-146.50;100.00
58937;BME280;44718;52.346;4.970;2023-03-01T05:25:51;61355.78;;;-146.50;100.00
58937;BME280;44718;52.346;4.970;2023-03-01T05:28:18;61388.78;;;-146.50;100.00
58937;BME280;44718;52.346;4.970;2023-03-01T05:30:45;61415.63;;;-146.50;100.00
58937;BME280;44718;52.346;4.970;2023-03-01T05:33:11;61403.25;;;-146.50;100.00
58937;BME280;44718;52.346;4.970;2023-03-01T05:35:41;61390.88;;;-146.50;100.00
58937;BME280;44718;52.346;4.970;2023-03-01T05:38:14;61378.47;;;-146.50;100.00
58937;BME280;44718;52.346;4.970;2023-03-01T05:40:41;61374.34;;;-146.50;100.00
58937;BME280;44718;52.346;4.970;2023-03-01T05:43:07;61415.63;;;-146.50;100.00
58937;BME280;44718;52.346;4.970;2023-03-01T05:45:33;61380.53;;;-146.50;100.00
58937;BME280;44718;52.346;4.970;2023-03-01T05:48:00;61376.41;;;-146.50;100.00
58937;BME280;44718;52.346;4.970;2023-03-01T05:50:30;61378.47;;;-146.50;100.00
58937;BME280;44718;52.346;4.970;2023-03-01T05:52:58;61403.25;;;-146.50;100.00
58937;BME280;44718;52.346;4.970;2023-03-01T05:55:23;61430.06;;;-146.50;100.00
58937;BME280;44718;52.346;4.970;2023-03-01T05:57:49;61399.13;;;-146.50;100.00
58937;BME280;44718;52.346;4.970;2023-03-01T06:00:19;61430.06;;;-146.50;100.00
58937;BME280;44718;52.346;4.970;2023-03-01T06:02:45;61403.25;;;-146.50;100.00
58937;BME280;44718;52.346;4.970;2023-03-01T06:05:11;61413.56;;;-146.50;100.00
58937;BME280;44718;52.346;4.970;2023-03-01T06:07:40;61384.66;;;-146.50;100.00
58937;BME280;44718;52.346;4.970;2023-03-01T06:10:08;61403.25;;;-146.50;100.00
58937;BME280;44718;52.346;4.970;2023-03-01T06:12:35;61415.63;;;-146.50;100.00
58937;BME280;44718;52.346;4.970;2023-03-01T06:15:03;61405.31;;;-146.50;100.00
58937;BME280;44718;52.346;4.970;2023-03-01T06:17:31;61351.66;;;-146.50;100.00
58937;BME280;44718;52.346;4.970;2023-03-01T06:19:57;61417.69;;;-146.50;100.00
58937;BME280;44718;52.346;4.970;2023-03-01T06:22:22;61401.19;;;-146.50;100.00
58937;BME280;44718;52.346;4.970;2023-03-01T06:24:48;61395.00;;;-146.50;100.00
58937;BME280;44718;52.346;4.970;2023-03-01T06:27:13;61409.44;;;-146.50;100.00
58937;BME280;44718;52.346;4.970;2023-03-01T06:29:38;61423.88;;;-146.50;100.00
58937;BME280;44718;52.346;4.970;2023-03-01T06:32:04;61397.06;;;-146.50;100.00
58937;BME280;44718;52.346;4.970;2023-03-01T06:34:29;61382.59;;;-146.50;100.00
58937;BME280;44718;52.346;4.970;2023-03-01T06:36:54;61413.56;;;-146.50;100.00
58937;BME280;44718;52.346;4.970;2023-03-01T06:39:20;61452.75;;;-146.50;100.00
58937;BME280;44718;52.346;4.970;2023-03-01T06:41:45;61448.63;;;-146.50;100.00
58937;BME280;44718;52.346;4.970;2023-03-01T06:44:11;61392.94;;;-146.50;100.00
58937;BME280;44718;52.346;4.970;2023-03-01T06:46:36;61436.25;;;-146.50;100.00
58937;BME280;44718;52.346;4.970;2023-03-01T06:49:02;61428.00;;;-146.50;100.00
58937;BME280;44718;52.346;4.970;2023-03-01T06:51:30;61403.25;;;-146.50;100.00
58937;BME280;44718;52.346;4.970;2023-03-01T06:53:55;61370.22;;;-146.50;100.00
58937;BME280;44718;52.346;4.970;2023-03-01T06:56:20;61411.50;;;-146.50;100.00
58937;BME280;44718;52.346;4.970;2023-03-01T06:58:46;61388.78;;;-146.50;100.00
58937;BME280;44718;52.346;4.970;2023-03-01T07:01:11;61463.06;;;-146.50;100.00
58937;BME280;44718;52.346;4.970;2023-03-01T07:03:36;61403.25;;;-146.50;100.00
58937;BME280;44718;52.346;4.970;2023-03-01T07:06:02;61415.63;;;-146.50;100.00
58937;BME280;44718;52.346;4.970;2023-03-01T07:08:27;61444.50;;;-146.50;100.00
58937;BME280;44718;52.346;4.970;2023-03-01T07:10:56;61465.13;;;-146.50;100.00
58937;BME280;44718;52.346;4.970;2023-03-01T07:13:21;61496.09;;;-146.50;100.00
58937;BME280;44718;52.346;4.970;2023-03-01T07:15:47;61574.50;;;-146.50;100.00
58937;BME280;44718;52.346;4.970;2023-03-01T07:18:12;61607.50;;;-146.50;100.00
58937;BME280;44718;52.346;4.970;2023-03-01T07:20:37;61599.25;;;-146.50;100.00
58937;BME280;44718;52.346;4.970;2023-03-01T07:23:02;61597.19;;;-146.50;100.00
58937;BME280;44718;52.346;4.970;2023-03-01T07:25:28;61586.88;;;-146.50;100.00
58937;BME280;44718;52.346;4.970;2023-03-01T07:27:53;61572.44;;;-146.50;100.00
58937;BME280;44718;52.346;4.970;2023-03-01T07:30:19;61588.94;;;-146.50;100.00
58937;BME280;44718;52.346;4.970;2023-03-01T07:32:45;61626.06;;;-146.50;100.00
58937;BME280;44718;52.346;4.970;2023-03-01T07:35:10;61601.31;;;-146.50;100.00
58937;BME280;44718;52.346;4.970;2023-03-01T07:37:36;61597.19;;;-146.50;100.00
58937;BME280;44718;52.346;4.970;2023-03-01T07:40:01;61588.94;;;-146.50;100.00
58937;BME280;44718;52.346;4.970;2023-03-01T07:42:27;61617.81;;;-146.50;100.00
58937;BME280;44718;52.346;4.970;2023-03-01T07:44:52;61543.53;;;-146.50;100.00
58937;BME280;44718;52.346;4.970;2023-03-01T07:47:17;61566.25;;;-146.50;100.00
58937;BME280;44718;52.346;4.970;2023-03-01T07:49:42;61609.56;;;-146.50;100.00
58937;BME280;44718;52.346;4.970;2023-03-01T07:52:11;61611.63;;;-146.50;100.00
58937;BME280;44718;52.346;4.970;2023-03-01T07:54:37;61634.31;;;-146.50;100.00
58937;BME280;44718;52.346;4.970;2023-03-01T07:57:02;61611.63;;;-146.50;100.00
58937;BME280;44718;52.346;4.970;2023-03-01T07:59:28;61617.81;;;-146.50;100.00
58937;BME280;44718;52.346;4.970;2023-03-01T08:01:58;61597.19;;;-146.50;100.00
58937;BME280;44718;52.346;4.970;2023-03-01T08:04:23;61650.84;;;-146.50;100.00
58937;BME280;44718;52.346;4.970;2023-03-01T08:06:51;61634.31;;;-146.50;100.00
58937;BME280;44718;52.346;4.970;2023-03-01T08:09:16;61588.94;;;-146.50;100.00
58937;BME280;44718;52.346;4.970;2023-03-01T08:11:41;61605.44;;;-146.50;100.00
58937;BME280;44718;52.346;4.970;2023-03-01T08:14:07;61584.81;;;-146.50;100.00
58937;BME280;44718;52.346;4.970;2023-03-01T08:16:32;61640.53;;;-146.50;100.00
58937;BME280;44718;52.346;4.970;2023-03-01T08:19:05;61681.78;;;-146.50;100.00
58937;BME280;44718;52.346;4.970;2023-03-01T08:21:30;61669.41;;;-146.50;100.00
58937;BME280;44718;52.346;4.970;2023-03-01T08:23:55;61634.31;;;-146.50;100.00
58937;BME280;44718;52.346;4.970;2023-03-01T08:26:21;61644.66;;;-146.50;100.00
58937;BME280;44718;52.346;4.970;2023-03-01T08:28:47;61628.13;;;-146.50;100.00
58937;BME280;44718;52.346;4.970;2023-03-01T08:31:39;61615.75;;;-146.50;100.00
58937;BME280;44718;52.346;4.970;2023-03-01T08:34:08;61541.47;;;-146.50;100.00
58937;BME280;44718;52.346;4.970;2023-03-01T08:36:39;61603.38;;;-146.50;100.00
58937;BME280;44718;52.346;4.970;2023-03-01T08:39:06;61560.03;;;-146.50;100.00
58937;BME280;44718;52.346;4.970;2023-03-01T08:41:32;61549.72;;;-146.50;100.00
58937;BME280;44718;52.346;4.970;2023-03-01T08:44:00;61553.84;;;-146.50;100.00
58937;BME280;44718;52.346;4.970;2023-03-01T08:48:52;61597.19;;;-146.50;100.00
58937;BME280;44718;52.346;4.970;2023-03-01T08:51:18;61591.00;;;-146.50;100.00
58937;BME280;44718;52.346;4.970;2023-03-01T08:53:44;61638.44;;;-146.50;100.00
58937;BME280;44718;52.346;4.970;2023-03-01T08:56:10;61605.44;;;-146.50;100.00
58937;BME280;44718;52.346;4.970;2023-03-01T08:58:36;61609.56;;;-146.50;100.00
58937;BME280;44718;52.346;4.970;2023-03-01T09:01:10;61566.25;;;-146.50;100.00
58937;BME280;44718;52.346;4.970;2023-03-01T09:03:36;61576.56;;;-146.50;100.00
58937;BME280;44718;52.346;4.970;2023-03-01T09:06:02;61593.06;;;-146.50;100.00
58937;BME280;44718;52.346;4.970;2023-03-01T09:08:28;61518.78;;;-146.50;100.00
58937;BME280;44718;52.346;4.970;2023-03-01T09:10:54;61489.91;;;-146.50;100.00
58937;BME280;44718;52.346;4.970;2023-03-01T09:13:19;61485.78;;;-146.50;100.00
58937;BME280;44718;52.346;4.970;2023-03-01T09:15:44;61489.91;;;-146.50;100.00
58937;BME280;44718;52.346;4.970;2023-03-01T09:18:10;61448.63;;;-146.50;100.00
58937;BME280;44718;52.346;4.970;2023-03-01T09:20:35;61450.69;;;-146.50;100.00
58937;BME280;44718;52.346;4.970;2023-03-01T09:23:00;61456.88;;;-146.50;100.00
58937;BME280;44718;52.346;4.970;2023-03-01T09:25:26;61446.56;;;-146.50;100.00
58937;BME280;44718;52.346;4.970;2023-03-01T09:27:53;61487.84;;;-146.50;100.00
58937;BME280;44718;52.346;4.970;2023-03-01T09:30:18;61504.34;;;-146.50;100.00
58937;BME280;44718;52.346;4.970;2023-03-01T09:32:44;61485.78;;;-146.50;100.00
58937;BME280;44718;52.346;4.970;2023-03-01T09:35:10;61485.78;;;-146.50;100.00
58937;BME280;44718;52.346;4.970;2023-03-01T09:37:37;61502.28;;;-146.50;100.00
58937;BME280;44718;52.346;4.970;2023-03-01T09:40:05;61461.00;;;-146.50;100.00
58937;BME280;44718;52.346;4.970;2023-03-01T09:42:35;61485.78;;;-146.50;100.00
58937;BME280;44718;52.346;4.970;2023-03-01T09:45:04;61436.25;;;-146.50;100.00
58937;BME280;44718;52.346;4.970;2023-03-01T09:47:32;61421.81;;;-146.50;100.00
58937;BME280;44718;52.346;4.970;2023-03-01T09:50:05;61421.81;;;-146.50;100.00
58937;BME280;44718;52.346;4.970;2023-03-01T09:52:41;61421.81;;;-146.50;100.00
58937;BME280;44718;52.346;4.970;2023-03-01T09:55:13;61436.25;;;-146.50;100.00
58937;BME280;44718;52.346;4.970;2023-03-01T09:57:50;61405.31;;;-146.50;100.00
58937;BME280;44718;52.346;4.970;2023-03-01T10:00:26;61419.75;;;-146.50;100.00
58937;BME280;44718;52.346;4.970;2023-03-01T10:03:08;61419.75;;;-146.50;100.00
58937;BME280;44718;52.346;4.970;2023-03-01T10:05:43;61440.38;;;-146.50;100.00
58937;BME280;44718;52.346;4.970;2023-03-01T10:08:33;61432.13;;;-146.50;100.00
58937;BME280;44718;52.346;4.970;2023-03-01T10:11:02;61399.13;;;-146.50;100.00
58937;BME280;44718;52.346;4.970;2023-03-01T10:13:45;61386.72;;;-146.50;100.00
58937;BME280;44718;52.346;4.970;2023-03-01T10:16:21;61333.09;;;-146.50;100.00
58937;BME280;44718;52.346;4.970;2023-03-01T10:18:59;61316.59;;;-146.50;100.00
58937;BME280;44718;52.346;4.970;2023-03-01T10:21:26;61347.53;;;-146.50;100.00
58937;BME280;44718;52.346;4.970;2023-03-01T10:23:53;61370.22;;;-146.50;100.00
58937;BME280;44718;52.346;4.970;2023-03-01T10:28:58;61355.78;;;-146.50;100.00
58937;BME280;44718;52.346;4.970;2023-03-01T10:31:43;61397.06;;;-146.50;100.00
58937;BME280;44718;52.346;4.970;2023-03-01T10:34:21;61361.97;;;-146.50;100.00
58937;BME280;44718;52.346;4.970;2023-03-01T10:36:50;61390.88;;;-146.50;100.00
58937;BME280;44718;52.346;4.970;2023-03-01T10:39:22;61392.94;;;-146.50;100.00
58937;BME280;44718;52.346;4.970;2023-03-01T10:42:00;61366.09;;;-146.50;100.00
58937;BME280;44718;52.346;4.970;2023-03-01T10:44:46;61355.78;;;-146.50;100.00
58937;BME280;44718;52.346;4.970;2023-03-01T10:47:23;61341.34;;;-146.50;100.00
58937;BME280;44718;52.346;4.970;2023-03-01T10:50:01;61275.31;;;-146.50;100.00
58937;BME280;44718;52.346;4.970;2023-03-01T10:52:34;61343.41;;;-146.50;100.00
58937;BME280;44718;52.346;4.970;2023-03-01T10:55:41;61339.28;;;-146.50;100.00
58937;BME280;44718;52.346;4.970;2023-03-01T10:58:25;61328.97;;;-146.50;100.00
58937;BME280;44718;52.346;4.970;2023-03-01T11:00:54;61298.03;;;-146.50;100.00
58937;BME280;44718;52.346;4.970;2023-03-01T11:03:26;61324.84;;;-146.50;100.00
58937;BME280;44718;52.346;4.970;2023-03-01T11:05:55;61291.81;;;-146.50;100.00
58937;BME280;44718;52.346;4.970;2023-03-01T11:08:39;61289.75;;;-146.50;100.00
58937;BME280;44718;52.346;4.970;2023-03-01T11:16:41;61215.50;;;-146.50;100.00
58937;BME280;44718;52.346;4.970;2023-03-01T11:21:59;61221.69;;;-146.50;100.00
58937;BME280;44718;52.346;4.970;2023-03-01T11:24:42;61252.63;;;-146.50;100.00
58937;BME280;44718;52.346;4.970;2023-03-01T11:27:17;61225.81;;;-146.50;100.00
58937;BME280;44718;52.346;4.970;2023-03-01T11:29:47;61234.06;;;-146.50;100.00
58937;BME280;44718;52.346;4.970;2023-03-01T11:32:17;61209.31;;;-146.50;100.00
58937;BME280;44718;52.346;4.970;2023-03-01T11:38:02;61211.38;;;-146.50;100.00
58937;BME280;44718;52.346;4.970;2023-03-01T11:49:02;61163.91;;;-146.50;100.00
58937;BME280;44718;52.346;4.970;2023-03-01T11:56:39;61213.44;;;-146.50;100.00
58937;BME280;44718;52.346;4.970;2023-03-01T12:02:27;61209.31;;;-146.50;100.00
58937;BME280;44718;52.346;4.970;2023-03-01T12:08:20;61176.28;;;-146.50;100.00
58937;BME280;44718;52.346;4.970;2023-03-01T12:11:23;61153.59;;;-146.50;100.00
58937;BME280;44718;52.346;4.970;2023-03-01T12:14:11;61188.69;;;-146.50;100.00
58937;BME280;44718;52.346;4.970;2023-03-01T12:19:39;61147.41;;;-146.50;100.00
58937;BME280;44718;52.346;4.970;2023-03-01T12:30:15;61161.84;;;-146.50;100.00
58937;BME280;44718;52.346;4.970;2023-03-01T12:33:22;61157.72;;;-146.50;100.00
58937;BME280;44718;52.346;4.970;2023-03-01T12:38:44;61178.34;;;-146.50;100.00
58937;BME280;44718;52.346;4.970;2023-03-01T12:41:46;61168.03;;;-146.50;100.00
58937;BME280;44718;52.346;4.970;2023-03-01T12:47:14;61170.09;;;-146.50;100.00
58937;BME280;44718;52.346;4.970;2023-03-01T12:49:57;61157.72;;;-146.50;100.00
58937;BME280;44718;52.346;4.970;2023-03-01T13:04:04;61126.78;;;-146.50;100.00
58937;BME280;44718;52.346;4.970;2023-03-01T13:09:40;61184.53;;;-146.50;100.00
58937;BME280;44718;52.346;4.970;2023-03-01T13:17:47;61213.44;;;-146.50;100.00
58937;BME280;44718;52.346;4.970;2023-03-01T13:20:15;61163.91;;;-146.50;100.00
58937;BME280;44718;52.346;4.970;2023-03-01T13:22:41;61196.94;;;-146.50;100.00
58937;BME280;44718;52.346;4.970;2023-03-01T13:25:17;61188.69;;;-146.50;100.00
58937;BME280;44718;52.346;4.970;2023-03-01T13:27:44;61151.53;;;-146.50;100.00
58937;BME280;44718;52.346;4.970;2023-03-01T13:30:39;61149.47;;;-146.50;100.00
58937;BME280;44718;52.346;4.970;2023-03-01T13:35:48;61135.03;;;-146.50;100.00
58937;BME280;44718;52.346;4.970;2023-03-01T13:40:59;61135.03;;;-146.50;100.00
58937;BME280;44718;52.346;4.970;2023-03-01T13:43:34;61137.09;;;-146.50;100.00
58937;BME280;44718;52.346;4.970;2023-03-01T13:46:07;61172.16;;;-146.50;100.00
58937;BME280;44718;52.346;4.970;2023-03-01T13:48:38;61159.78;;;-146.50;100.00
58937;BME280;44718;52.346;4.970;2023-03-01T13:51:08;61139.16;;;-146.50;100.00
58937;BME280;44718;52.346;4.970;2023-03-01T13:53:44;61163.91;;;-146.50;100.00
58937;BME280;44718;52.346;4.970;2023-03-01T13:56:17;61188.69;;;-146.50;100.00
58937;BME280;44718;52.346;4.970;2023-03-01T13:58:50;61132.97;;;-146.50;100.00
58937;BME280;44718;52.346;4.970;2023-03-01T14:01:26;61135.03;;;-146.50;100.00
58937;BME280;44718;52.346;4.970;2023-03-01T14:03:51;61114.41;;;-146.50;100.00
58937;BME280;44718;52.346;4.970;2023-03-01T14:06:20;61130.91;;;-146.50;100.00
58937;BME280;44718;52.346;4.970;2023-03-01T14:08:52;61128.84;;;-146.50;100.00